sensor_id;sensor_type;location;lat;lon;timestamp;P1;durP1;ratioP1;P2;durP2;ratioP2
44987;SDS011;35735;52.226;21.254;2022-08-01T00:02:41;4.95;;;2.70;;
44987;SDS011;35735;52.226;21.254;2022-08-01T00:07:42;3.92;;;2.97;;
44987;SDS011;35735;52.226;21.254;2022-08-01T00:12:43;3.17;;;2.83;;
44987;SDS011;35735;52.226;21.254;2022-08-01T00:17:45;5.07;;;2.65;;
44987;SDS011;35735;52.226;21.254;2022-08-01T00:22:45;6.47;;;2.97;;
44987;SDS011;35735;52.226;21.254;2022-08-01T00:27:49;5.62;;;2.92;;
44987;SDS011;35735;52.226;21.254;2022-08-01T00:32:49;5.45;;;2.65;;
44987;SDS011;35735;52.226;21.254;2022-08-01T00:37:50;7.65;;;3.42;;
44987;SDS011;35735;52.226;21.254;2022-08-01T00:42:50;2.78;;;2.50;;
44987;SDS011;35735;52.226;21.254;2022-08-01T00:47:51;4.55;;;2.83;;
44987;SDS011;35735;52.226;21.254;2022-08-01T00:52:52;5.87;;;2.87;;
44987;SDS011;35735;52.226;21.254;2022-08-01T00:57:54;5.65;;;2.95;;
44987;SDS011;35735;52.226;21.254;2022-08-01T01:02:55;3.83;;;2.85;;
44987;SDS011;35735;52.226;21.254;2022-08-01T01:07:58;4.05;;;2.83;;
44987;SDS011;35735;52.226;21.254;2022-08-01T01:13:11;3.97;;;2.80;;
44987;SDS011;35735;52.226;21.254;2022-08-01T01:23:44;4.55;;;2.50;;
44987;SDS011;35735;52.226;21.254;2022-08-01T01:34:15;8.73;;;2.95;;
44987;SDS011;35735;52.226;21.254;2022-08-01T01:39:19;6.47;;;2.62;;
44987;SDS011;35735;52.226;21.254;2022-08-01T01:44:21;5.03;;;3.00;;
44987;SDS011;35735;52.226;21.254;2022-08-01T01:49:23;3.00;;;2.70;;
44987;SDS011;35735;52.226;21.254;2022-08-01T01:54:33;4.93;;;2.42;;
44987;SDS011;35735;52.226;21.254;2022-08-01T01:59:40;6.37;;;2.65;;
44987;SDS011;35735;52.226;21.254;2022-08-01T02:04:43;2.72;;;2.53;;
44987;SDS011;35735;52.226;21.254;2022-08-01T02:09:45;3.85;;;2.45;;
44987;SDS011;35735;52.226;21.254;2022-08-01T02:14:47;6.43;;;2.75;;
44987;SDS011;35735;52.226;21.254;2022-08-01T02:19:50;8.38;;;3.00;;
44987;SDS011;35735;52.226;21.254;2022-08-01T02:24:59;4.62;;;3.20;;
44987;SDS011;35735;52.226;21.254;2022-08-01T02:30:07;6.90;;;3.12;;
44987;SDS011;35735;52.226;21.254;2022-08-01T02:35:11;9.57;;;3.47;;
44987;SDS011;35735;52.226;21.254;2022-08-01T02:40:20;4.12;;;3.20;;
44987;SDS011;35735;52.226;21.254;2022-08-01T02:45:22;6.37;;;3.70;;
44987;SDS011;35735;52.226;21.254;2022-08-01T02:50:26;11.30;;;3.90;;
44987;SDS011;35735;52.226;21.254;2022-08-01T02:55:29;9.32;;;3.95;;
44987;SDS011;35735;52.226;21.254;2022-08-01T03:00:32;6.93;;;3.53;;
44987;SDS011;35735;52.226;21.254;2022-08-01T03:05:34;7.07;;;3.80;;
44987;SDS011;35735;52.226;21.254;2022-08-01T03:10:36;9.38;;;4.15;;
44987;SDS011;35735;52.226;21.254;2022-08-01T03:15:40;11.38;;;4.18;;
44987;SDS011;35735;52.226;21.254;2022-08-01T03:20:43;8.57;;;4.12;;
44987;SDS011;35735;52.226;21.254;2022-08-01T03:25:45;7.43;;;4.10;;
44987;SDS011;35735;52.226;21.254;2022-08-01T03:30:51;11.95;;;4.28;;
44987;SDS011;35735;52.226;21.254;2022-08-01T03:35:54;9.18;;;4.43;;
44987;SDS011;35735;52.226;21.254;2022-08-01T03:40:56;11.68;;;4.55;;
44987;SDS011;35735;52.226;21.254;2022-08-01T03:46:06;9.02;;;4.72;;
44987;SDS011;35735;52.226;21.254;2022-08-01T03:51:11;9.23;;;4.90;;
44987;SDS011;35735;52.226;21.254;2022-08-01T03:56:14;11.65;;;4.50;;
44987;SDS011;35735;52.226;21.254;2022-08-01T04:01:19;8.38;;;4.82;;
44987;SDS011;35735;52.226;21.254;2022-08-01T04:06:21;8.73;;;4.70;;
44987;SDS011;35735;52.226;21.254;2022-08-01T04:11:23;9.48;;;4.75;;
44987;SDS011;35735;52.226;21.254;2022-08-01T04:16:25;11.12;;;4.12;;
44987;SDS011;35735;52.226;21.254;2022-08-01T04:21:26;11.18;;;4.53;;
44987;SDS011;35735;52.226;21.254;2022-08-01T04:26:29;8.38;;;4.30;;
44987;SDS011;35735;52.226;21.254;2022-08-01T04:31:33;11.00;;;4.50;;
44987;SDS011;35735;52.226;21.254;2022-08-01T04:36:36;9.95;;;4.95;;
44987;SDS011;35735;52.226;21.254;2022-08-01T04:41:38;12.40;;;4.62;;
44987;SDS011;35735;52.226;21.254;2022-08-01T04:46:39;11.93;;;4.72;;
44987;SDS011;35735;52.226;21.254;2022-08-01T04:51:53;8.82;;;4.20;;
44987;SDS011;35735;52.226;21.254;2022-08-01T04:56:56;8.75;;;4.10;;
44987;SDS011;35735;52.226;21.254;2022-08-01T05:01:56;7.70;;;4.72;;
44987;SDS011;35735;52.226;21.254;2022-08-01T05:06:57;6.85;;;4.03;;
44987;SDS011;35735;52.226;21.254;2022-08-01T05:12:01;8.77;;;4.25;;
44987;SDS011;35735;52.226;21.254;2022-08-01T05:17:05;8.88;;;4.05;;
44987;SDS011;35735;52.226;21.254;2022-08-01T05:22:08;8.38;;;4.15;;
44987;SDS011;35735;52.226;21.254;2022-08-01T05:27:09;6.82;;;3.45;;
44987;SDS011;35735;52.226;21.254;2022-08-01T05:32:10;6.35;;;3.37;;
44987;SDS011;35735;52.226;21.254;2022-08-01T05:37:10;4.22;;;3.10;;
44987;SDS011;35735;52.226;21.254;2022-08-01T05:42:11;7.95;;;3.37;;
44987;SDS011;35735;52.226;21.254;2022-08-01T05:47:11;6.97;;;3.40;;
44987;SDS011;35735;52.226;21.254;2022-08-01T05:52:12;9.50;;;3.90;;
44987;SDS011;35735;52.226;21.254;2022-08-01T05:57:13;6.32;;;3.00;;
44987;SDS011;35735;52.226;21.254;2022-08-01T06:02:13;9.13;;;2.83;;
44987;SDS011;35735;52.226;21.254;2022-08-01T06:07:14;7.15;;;3.10;;
44987;SDS011;35735;52.226;21.254;2022-08-01T06:12:15;8.55;;;3.50;;
44987;SDS011;35735;52.226;21.254;2022-08-01T06:17:15;4.32;;;2.83;;
44987;SDS011;35735;52.226;21.254;2022-08-01T06:22:16;5.60;;;2.72;;
44987;SDS011;35735;52.226;21.254;2022-08-01T06:27:16;5.07;;;2.55;;
44987;SDS011;35735;52.226;21.254;2022-08-01T06:32:17;3.85;;;2.55;;
44987;SDS011;35735;52.226;21.254;2022-08-01T06:37:18;7.18;;;2.33;;
44987;SDS011;35735;52.226;21.254;2022-08-01T06:42:18;4.30;;;1.85;;
44987;SDS011;35735;52.226;21.254;2022-08-01T06:47:19;3.90;;;2.17;;
44987;SDS011;35735;52.226;21.254;2022-08-01T06:52:19;3.45;;;1.73;;
44987;SDS011;35735;52.226;21.254;2022-08-01T06:57:20;4.68;;;2.00;;
44987;SDS011;35735;52.226;21.254;2022-08-01T07:02:21;3.70;;;2.10;;
44987;SDS011;35735;52.226;21.254;2022-08-01T07:07:22;5.50;;;1.73;;
44987;SDS011;35735;52.226;21.254;2022-08-01T07:12:23;3.87;;;2.15;;
44987;SDS011;35735;52.226;21.254;2022-08-01T07:17:23;3.00;;;1.73;;
44987;SDS011;35735;52.226;21.254;2022-08-01T07:22:24;3.17;;;1.62;;
44987;SDS011;35735;52.226;21.254;2022-08-01T07:27:24;2.92;;;1.45;;
44987;SDS011;35735;52.226;21.254;2022-08-01T07:32:25;5.20;;;1.90;;
44987;SDS011;35735;52.226;21.254;2022-08-01T07:37:26;4.10;;;1.95;;
44987;SDS011;35735;52.226;21.254;2022-08-01T07:42:26;7.30;;;1.70;;
44987;SDS011;35735;52.226;21.254;2022-08-01T07:47:27;4.20;;;1.65;;
44987;SDS011;35735;52.226;21.254;2022-08-01T07:52:27;2.20;;;1.80;;
44987;SDS011;35735;52.226;21.254;2022-08-01T07:57:28;2.45;;;1.37;;
44987;SDS011;35735;52.226;21.254;2022-08-01T08:02:28;4.43;;;1.48;;
44987;SDS011;35735;52.226;21.254;2022-08-01T08:07:29;4.35;;;1.50;;
44987;SDS011;35735;52.226;21.254;2022-08-01T08:12:29;5.10;;;1.60;;
44987;SDS011;35735;52.226;21.254;2022-08-01T08:17:30;6.95;;;1.90;;
44987;SDS011;35735;52.226;21.254;2022-08-01T08:22:31;2.03;;;1.37;;
44987;SDS011;35735;52.226;21.254;2022-08-01T08:27:32;5.00;;;1.87;;
44987;SDS011;35735;52.226;21.254;2022-08-01T08:32:33;3.15;;;1.70;;
44987;SDS011;35735;52.226;21.254;2022-08-01T08:37:35;4.22;;;1.65;;
44987;SDS011;35735;52.226;21.254;2022-08-01T08:42:39;3.17;;;1.80;;
44987;SDS011;35735;52.226;21.254;2022-08-01T08:47:40;1.85;;;1.40;;
44987;SDS011;35735;52.226;21.254;2022-08-01T08:52:41;2.85;;;1.50;;
44987;SDS011;35735;52.226;21.254;2022-08-01T08:57:44;5.12;;;1.80;;
44987;SDS011;35735;52.226;21.254;2022-08-01T09:02:46;3.33;;;1.60;;
44987;SDS011;35735;52.226;21.254;2022-08-01T09:07:48;4.75;;;1.80;;
44987;SDS011;35735;52.226;21.254;2022-08-01T09:18:32;4.12;;;1.60;;
44987;SDS011;35735;52.226;21.254;2022-08-01T09:23:34;4.62;;;1.80;;
44987;SDS011;35735;52.226;21.254;2022-08-01T09:28:36;1.50;;;1.30;;
44987;SDS011;35735;52.226;21.254;2022-08-01T09:33:55;2.05;;;1.55;;
44987;SDS011;35735;52.226;21.254;2022-08-01T09:38:58;3.03;;;1.70;;
44987;SDS011;35735;52.226;21.254;2022-08-01T09:44:13;2.95;;;1.20;;
44987;SDS011;35735;52.226;21.254;2022-08-01T09:49:15;2.87;;;1.87;;
44987;SDS011;35735;52.226;21.254;2022-08-01T09:54:29;3.00;;;1.35;;
44987;SDS011;35735;52.226;21.254;2022-08-01T09:59:35;2.75;;;1.58;;
44987;SDS011;35735;52.226;21.254;2022-08-01T10:04:48;4.03;;;1.58;;
44987;SDS011;35735;52.226;21.254;2022-08-01T10:09:50;4.62;;;1.77;;
44987;SDS011;35735;52.226;21.254;2022-08-01T10:14:51;2.85;;;1.50;;
44987;SDS011;35735;52.226;21.254;2022-08-01T10:19:52;5.10;;;1.92;;
44987;SDS011;35735;52.226;21.254;2022-08-01T10:24:54;5.32;;;1.30;;
44987;SDS011;35735;52.226;21.254;2022-08-01T10:29:56;2.65;;;1.23;;
44987;SDS011;35735;52.226;21.254;2022-08-01T10:34:59;4.72;;;1.40;;
44987;SDS011;35735;52.226;21.254;2022-08-01T10:40:01;3.67;;;1.33;;
44987;SDS011;35735;52.226;21.254;2022-08-01T10:45:02;1.70;;;1.30;;
44987;SDS011;35735;52.226;21.254;2022-08-01T10:55:23;3.17;;;1.50;;
44987;SDS011;35735;52.226;21.254;2022-08-01T11:00:24;4.82;;;1.75;;
44987;SDS011;35735;52.226;21.254;2022-08-01T11:05:25;3.92;;;1.30;;
44987;SDS011;35735;52.226;21.254;2022-08-01T11:15:40;1.33;;;1.23;;
44987;SDS011;35735;52.226;21.254;2022-08-01T11:20:43;3.53;;;1.60;;
44987;SDS011;35735;52.226;21.254;2022-08-01T11:41:10;2.00;;;1.30;;
44987;SDS011;35735;52.226;21.254;2022-08-01T11:46:15;1.58;;;1.40;;
44987;SDS011;35735;52.226;21.254;2022-08-01T11:51:16;3.40;;;1.40;;
44987;SDS011;35735;52.226;21.254;2022-08-01T11:56:20;1.85;;;1.30;;
44987;SDS011;35735;52.226;21.254;2022-08-01T12:01:20;3.22;;;1.40;;
44987;SDS011;35735;52.226;21.254;2022-08-01T12:06:27;2.80;;;1.80;;
44987;SDS011;35735;52.226;21.254;2022-08-01T12:11:28;1.92;;;1.40;;
44987;SDS011;35735;52.226;21.254;2022-08-01T12:16:29;1.58;;;1.30;;
44987;SDS011;35735;52.226;21.254;2022-08-01T12:21:30;6.30;;;2.17;;
44987;SDS011;35735;52.226;21.254;2022-08-01T12:26:42;5.07;;;1.70;;
44987;SDS011;35735;52.226;21.254;2022-08-01T12:31:43;2.22;;;1.40;;
44987;SDS011;35735;52.226;21.254;2022-08-01T12:36:43;8.45;;;1.85;;
44987;SDS011;35735;52.226;21.254;2022-08-01T12:41:44;5.53;;;1.60;;
44987;SDS011;35735;52.226;21.254;2022-08-01T12:46:45;5.80;;;1.80;;
44987;SDS011;35735;52.226;21.254;2022-08-01T12:51:46;6.05;;;2.00;;
44987;SDS011;35735;52.226;21.254;2022-08-01T12:56:47;4.90;;;1.95;;
44987;SDS011;35735;52.226;21.254;2022-08-01T13:01:47;4.47;;;1.70;;
44987;SDS011;35735;52.226;21.254;2022-08-01T13:06:52;12.27;;;2.40;;
44987;SDS011;35735;52.226;21.254;2022-08-01T13:11:54;4.45;;;1.90;;
44987;SDS011;35735;52.226;21.254;2022-08-01T13:16:54;2.78;;;1.85;;
44987;SDS011;35735;52.226;21.254;2022-08-01T13:21:56;3.65;;;2.08;;
44987;SDS011;35735;52.226;21.254;2022-08-01T13:27:01;2.42;;;1.60;;
44987;SDS011;35735;52.226;21.254;2022-08-01T13:32:13;2.40;;;1.65;;
44987;SDS011;35735;52.226;21.254;2022-08-01T13:37:18;2.78;;;2.00;;
44987;SDS011;35735;52.226;21.254;2022-08-01T13:42:19;3.00;;;1.65;;
44987;SDS011;35735;52.226;21.254;2022-08-01T13:47:19;6.03;;;2.15;;
44987;SDS011;35735;52.226;21.254;2022-08-01T13:52:20;5.25;;;1.70;;
44987;SDS011;35735;52.226;21.254;2022-08-01T14:09:09;3.42;;;1.95;;
44987;SDS011;35735;52.226;21.254;2022-08-01T14:14:10;6.75;;;2.30;;
44987;SDS011;35735;52.226;21.254;2022-08-01T14:19:11;5.62;;;1.77;;
44987;SDS011;35735;52.226;21.254;2022-08-01T14:24:11;4.65;;;1.90;;
44987;SDS011;35735;52.226;21.254;2022-08-01T14:29:12;3.05;;;1.60;;
44987;SDS011;35735;52.226;21.254;2022-08-01T14:34:12;3.90;;;2.25;;
44987;SDS011;35735;52.226;21.254;2022-08-01T14:39:13;5.62;;;2.50;;
44987;SDS011;35735;52.226;21.254;2022-08-01T14:44:13;4.00;;;2.22;;
44987;SDS011;35735;52.226;21.254;2022-08-01T14:49:14;4.12;;;2.47;;
44987;SDS011;35735;52.226;21.254;2022-08-01T14:54:14;2.85;;;1.90;;
44987;SDS011;35735;52.226;21.254;2022-08-01T14:59:15;4.75;;;2.33;;
44987;SDS011;35735;52.226;21.254;2022-08-01T15:04:15;4.00;;;2.30;;
44987;SDS011;35735;52.226;21.254;2022-08-01T15:09:16;5.82;;;2.40;;
44987;SDS011;35735;52.226;21.254;2022-08-01T15:14:16;4.45;;;2.20;;
44987;SDS011;35735;52.226;21.254;2022-08-01T15:19:17;2.50;;;1.83;;
44987;SDS011;35735;52.226;21.254;2022-08-01T15:24:17;3.90;;;1.92;;
44987;SDS011;35735;52.226;21.254;2022-08-01T15:29:18;5.18;;;2.12;;
44987;SDS011;35735;52.226;21.254;2022-08-01T15:34:19;3.70;;;2.58;;
44987;SDS011;35735;52.226;21.254;2022-08-01T15:39:19;4.25;;;2.60;;
44987;SDS011;35735;52.226;21.254;2022-08-01T15:44:20;5.10;;;2.75;;
44987;SDS011;35735;52.226;21.254;2022-08-01T15:49:20;7.10;;;3.10;;
44987;SDS011;35735;52.226;21.254;2022-08-01T15:54:21;12.13;;;3.17;;
44987;SDS011;35735;52.226;21.254;2022-08-01T15:59:22;5.12;;;3.28;;
44987;SDS011;35735;52.226;21.254;2022-08-01T16:04:22;5.78;;;3.20;;
44987;SDS011;35735;52.226;21.254;2022-08-01T16:09:23;5.78;;;2.60;;
44987;SDS011;35735;52.226;21.254;2022-08-01T16:14:24;3.87;;;2.40;;
44987;SDS011;35735;52.226;21.254;2022-08-01T16:19:24;5.20;;;2.40;;
44987;SDS011;35735;52.226;21.254;2022-08-01T16:24:25;3.30;;;2.15;;
44987;SDS011;35735;52.226;21.254;2022-08-01T16:29:25;3.12;;;2.40;;
44987;SDS011;35735;52.226;21.254;2022-08-01T16:34:26;4.87;;;2.10;;
44987;SDS011;35735;52.226;21.254;2022-08-01T16:39:26;6.25;;;2.60;;
44987;SDS011;35735;52.226;21.254;2022-08-01T16:44:27;4.15;;;2.28;;
44987;SDS011;35735;52.226;21.254;2022-08-01T16:49:28;7.07;;;2.20;;
44987;SDS011;35735;52.226;21.254;2022-08-01T16:54:28;4.05;;;2.60;;
44987;SDS011;35735;52.226;21.254;2022-08-01T16:59:29;3.28;;;2.47;;
44987;SDS011;35735;52.226;21.254;2022-08-01T17:04:29;5.75;;;2.55;;
44987;SDS011;35735;52.226;21.254;2022-08-01T17:09:30;7.78;;;2.65;;
44987;SDS011;35735;52.226;21.254;2022-08-01T17:14:30;4.65;;;2.08;;
44987;SDS011;35735;52.226;21.254;2022-08-01T17:19:31;3.97;;;2.40;;
44987;SDS011;35735;52.226;21.254;2022-08-01T17:24:32;3.67;;;2.25;;
44987;SDS011;35735;52.226;21.254;2022-08-01T17:29:32;5.40;;;2.70;;
44987;SDS011;35735;52.226;21.254;2022-08-01T17:34:33;7.35;;;2.70;;
44987;SDS011;35735;52.226;21.254;2022-08-01T17:39:33;6.00;;;2.67;;
44987;SDS011;35735;52.226;21.254;2022-08-01T17:44:34;6.75;;;2.55;;
44987;SDS011;35735;52.226;21.254;2022-08-01T17:49:34;7.10;;;2.90;;
44987;SDS011;35735;52.226;21.254;2022-08-01T17:54:35;4.65;;;2.83;;
44987;SDS011;35735;52.226;21.254;2022-08-01T17:59:35;4.30;;;2.72;;
44987;SDS011;35735;52.226;21.254;2022-08-01T18:04:36;7.25;;;3.15;;
44987;SDS011;35735;52.226;21.254;2022-08-01T18:09:37;4.95;;;2.97;;
44987;SDS011;35735;52.226;21.254;2022-08-01T18:14:37;5.07;;;2.90;;
44987;SDS011;35735;52.226;21.254;2022-08-01T18:19:38;4.22;;;2.60;;
44987;SDS011;35735;52.226;21.254;2022-08-01T18:24:39;6.07;;;5.10;;
44987;SDS011;35735;52.226;21.254;2022-08-01T18:29:39;3.87;;;3.47;;
44987;SDS011;35735;52.226;21.254;2022-08-01T18:34:40;6.30;;;3.10;;
44987;SDS011;35735;52.226;21.254;2022-08-01T18:39:41;7.85;;;3.03;;
44987;SDS011;35735;52.226;21.254;2022-08-01T18:44:41;5.15;;;2.90;;
44987;SDS011;35735;52.226;21.254;2022-08-01T18:49:44;10.82;;;3.33;;
44987;SDS011;35735;52.226;21.254;2022-08-01T18:54:45;3.25;;;2.95;;
44987;SDS011;35735;52.226;21.254;2022-08-01T18:59:45;7.97;;;3.20;;
44987;SDS011;35735;52.226;21.254;2022-08-01T19:04:46;5.85;;;3.08;;
44987;SDS011;35735;52.226;21.254;2022-08-01T19:09:47;5.40;;;3.67;;
44987;SDS011;35735;52.226;21.254;2022-08-01T19:14:47;11.75;;;3.50;;
44987;SDS011;35735;52.226;21.254;2022-08-01T19:19:48;14.30;;;3.80;;
44987;SDS011;35735;52.226;21.254;2022-08-01T19:24:53;11.02;;;3.95;;
44987;SDS011;35735;52.226;21.254;2022-08-01T19:29:54;9.27;;;3.97;;
44987;SDS011;35735;52.226;21.254;2022-08-01T19:35:05;6.10;;;4.30;;
44987;SDS011;35735;52.226;21.254;2022-08-01T19:40:08;11.10;;;5.00;;
44987;SDS011;35735;52.226;21.254;2022-08-01T19:45:10;19.02;;;7.68;;
44987;SDS011;35735;52.226;21.254;2022-08-01T19:50:10;9.93;;;7.10;;
44987;SDS011;35735;52.226;21.254;2022-08-01T19:55:11;12.25;;;6.57;;
44987;SDS011;35735;52.226;21.254;2022-08-01T20:00:13;8.25;;;6.20;;
44987;SDS011;35735;52.226;21.254;2022-08-01T20:05:13;12.73;;;5.72;;
44987;SDS011;35735;52.226;21.254;2022-08-01T20:10:14;11.80;;;5.50;;
44987;SDS011;35735;52.226;21.254;2022-08-01T20:15:16;14.50;;;5.28;;
44987;SDS011;35735;52.226;21.254;2022-08-01T20:20:16;7.05;;;5.10;;
44987;SDS011;35735;52.226;21.254;2022-08-01T20:25:17;7.12;;;4.93;;
44987;SDS011;35735;52.226;21.254;2022-08-01T20:30:22;8.73;;;4.80;;
44987;SDS011;35735;52.226;21.254;2022-08-01T20:35:24;5.35;;;4.45;;
44987;SDS011;35735;52.226;21.254;2022-08-01T20:40:27;10.68;;;4.70;;
44987;SDS011;35735;52.226;21.254;2022-08-01T20:45:28;8.52;;;4.80;;
44987;SDS011;35735;52.226;21.254;2022-08-01T20:50:28;6.55;;;4.28;;
44987;SDS011;35735;52.226;21.254;2022-08-01T20:55:35;7.93;;;5.22;;
44987;SDS011;35735;52.226;21.254;2022-08-01T21:00:48;11.30;;;4.75;;
44987;SDS011;35735;52.226;21.254;2022-08-01T21:05:55;9.93;;;5.10;;
44987;SDS011;35735;52.226;21.254;2022-08-01T21:11:09;8.15;;;5.40;;
44987;SDS011;35735;52.226;21.254;2022-08-01T21:16:20;9.80;;;5.75;;
44987;SDS011;35735;52.226;21.254;2022-08-01T21:21:27;7.72;;;5.32;;
44987;SDS011;35735;52.226;21.254;2022-08-01T21:26:28;12.32;;;6.10;;
44987;SDS011;35735;52.226;21.254;2022-08-01T21:31:34;10.98;;;5.55;;
44987;SDS011;35735;52.226;21.254;2022-08-01T21:36:35;8.55;;;5.50;;
44987;SDS011;35735;52.226;21.254;2022-08-01T21:41:36;9.52;;;5.45;;
44987;SDS011;35735;52.226;21.254;2022-08-01T21:46:37;8.15;;;5.03;;
44987;SDS011;35735;52.226;21.254;2022-08-01T21:57:20;9.80;;;5.30;;
44987;SDS011;35735;52.226;21.254;2022-08-01T22:02:33;8.55;;;5.62;;
44987;SDS011;35735;52.226;21.254;2022-08-01T22:07:39;7.12;;;5.53;;
44987;SDS011;35735;52.226;21.254;2022-08-01T22:12:45;9.18;;;6.40;;
44987;SDS011;35735;52.226;21.254;2022-08-01T22:17:46;12.57;;;7.00;;
44987;SDS011;35735;52.226;21.254;2022-08-01T22:22:51;9.07;;;6.05;;
44987;SDS011;35735;52.226;21.254;2022-08-01T22:27:53;12.55;;;6.90;;
44987;SDS011;35735;52.226;21.254;2022-08-01T22:32:53;7.62;;;6.12;;
44987;SDS011;35735;52.226;21.254;2022-08-01T22:37:54;8.40;;;6.18;;
44987;SDS011;35735;52.226;21.254;2022-08-01T22:42:57;13.70;;;6.65;;
44987;SDS011;35735;52.226;21.254;2022-08-01T22:53:23;8.45;;;6.40;;
44987;SDS011;35735;52.226;21.254;2022-08-01T22:58:31;10.85;;;6.80;;
44987;SDS011;35735;52.226;21.254;2022-08-01T23:03:33;8.60;;;6.30;;
44987;SDS011;35735;52.226;21.254;2022-08-01T23:08:40;8.85;;;7.20;;
44987;SDS011;35735;52.226;21.254;2022-08-01T23:13:43;9.73;;;6.60;;
44987;SDS011;35735;52.226;21.254;2022-08-01T23:18:45;10.60;;;6.25;;
44987;SDS011;35735;52.226;21.254;2022-08-01T23:23:45;10.25;;;7.15;;
44987;SDS011;35735;52.226;21.254;2022-08-01T23:28:47;9.32;;;7.22;;
44987;SDS011;35735;52.226;21.254;2022-08-01T23:33:49;7.80;;;6.90;;
44987;SDS011;35735;52.226;21.254;2022-08-01T23:38:50;11.02;;;6.53;;
44987;SDS011;35735;52.226;21.254;2022-08-01T23:43:50;8.10;;;6.37;;
44987;SDS011;35735;52.226;21.254;2022-08-01T23:48:51;8.48;;;6.50;;
44987;SDS011;35735;52.226;21.254;2022-08-01T23:53:54;8.57;;;6.57;;
44987;SDS011;35735;52.226;21.254;2022-08-01T23:58:55;8.43;;;6.90;;
